sensor_id;sensor_type;location;lat;lon;timestamp;temperature;humidity
3344;DHT22;1685;53.104;8.228;2022-11-09T00:01:23;12.90;99.90
3344;DHT22;1685;53.104;8.228;2022-11-09T00:03:53;13.10;99.90
3344;DHT22;1685;53.104;8.228;2022-11-09T00:06:22;13.00;99.90
3344;DHT22;1685;53.104;8.228;2022-11-09T00:13:44;13.10;99.90
3344;DHT22;1685;53.104;8.228;2022-11-09T00:16:13;13.10;99.90
3344;DHT22;1685;53.104;8.228;2022-11-09T00:21:13;13.10;99.90
3344;DHT22;1685;53.104;8.228;2022-11-09T00:23:41;13.10;99.90
3344;DHT22;1685;53.104;8.228;2022-11-09T00:26:10;13.00;99.90
3344;DHT22;1685;53.104;8.228;2022-11-09T00:28:37;13.00;99.90
3344;DHT22;1685;53.104;8.228;2022-11-09T00:31:06;13.20;99.90
3344;DHT22;1685;53.104;8.228;2022-11-09T00:36:03;12.90;99.90
3344;DHT22;1685;53.104;8.228;2022-11-09T00:38:35;13.00;99.90
3344;DHT22;1685;53.104;8.228;2022-11-09T00:41:05;13.20;99.90
3344;DHT22;1685;53.104;8.228;2022-11-09T00:50:55;13.00;99.90
3344;DHT22;1685;53.104;8.228;2022-11-09T00:55:54;13.00;99.90
3344;DHT22;1685;53.104;8.228;2022-11-09T00:58:22;13.20;99.90
3344;DHT22;1685;53.104;8.228;2022-11-09T01:00:49;13.10;99.90
3344;DHT22;1685;53.104;8.228;2022-11-09T01:03:16;13.20;99.90
3344;DHT22;1685;53.104;8.228;2022-11-09T01:05:43;13.10;99.90
3344;DHT22;1685;53.104;8.228;2022-11-09T01:08:10;13.20;99.90
3344;DHT22;1685;53.104;8.228;2022-11-09T01:10:39;13.10;99.90
3344;DHT22;1685;53.104;8.228;2022-11-09T01:13:07;13.10;99.90
3344;DHT22;1685;53.104;8.228;2022-11-09T01:15:39;13.00;99.90
3344;DHT22;1685;53.104;8.228;2022-11-09T01:18:06;13.10;99.90
3344;DHT22;1685;53.104;8.228;2022-11-09T01:20:33;13.10;99.90
3344;DHT22;1685;53.104;8.228;2022-11-09T01:22:59;13.10;99.90
3344;DHT22;1685;53.104;8.228;2022-11-09T01:25:26;13.00;99.90
3344;DHT22;1685;53.104;8.228;2022-11-09T01:27:53;13.10;99.90
3344;DHT22;1685;53.104;8.228;2022-11-09T01:30:19;12.80;99.90
3344;DHT22;1685;53.104;8.228;2022-11-09T01:32:47;13.00;99.90
3344;DHT22;1685;53.104;8.228;2022-11-09T01:35:14;13.00;99.90
3344;DHT22;1685;53.104;8.228;2022-11-09T01:37:41;13.00;99.90
3344;DHT22;1685;53.104;8.228;2022-11-09T01:40:09;12.90;99.90
3344;DHT22;1685;53.104;8.228;2022-11-09T01:42:37;13.00;99.90
3344;DHT22;1685;53.104;8.228;2022-11-09T01:45:23;13.00;99.90
3344;DHT22;1685;53.104;8.228;2022-11-09T01:47:56;13.00;99.90
3344;DHT22;1685;53.104;8.228;2022-11-09T01:50:30;13.10;99.90
3344;DHT22;1685;53.104;8.228;2022-11-09T01:52:59;13.10;99.90
3344;DHT22;1685;53.104;8.228;2022-11-09T01:55:28;13.20;99.90
3344;DHT22;1685;53.104;8.228;2022-11-09T01:57:57;13.20;99.90
3344;DHT22;1685;53.104;8.228;2022-11-09T02:02:55;13.30;99.90
3344;DHT22;1685;53.104;8.228;2022-11-09T02:05:26;13.20;99.90
3344;DHT22;1685;53.104;8.228;2022-11-09T02:07:55;13.30;99.90
3344;DHT22;1685;53.104;8.228;2022-11-09T02:10:25;13.40;99.90
3344;DHT22;1685;53.104;8.228;2022-11-09T02:12:55;13.20;99.90
3344;DHT22;1685;53.104;8.228;2022-11-09T02:15:23;13.40;99.90
3344;DHT22;1685;53.104;8.228;2022-11-09T02:17:53;13.30;99.90
3344;DHT22;1685;53.104;8.228;2022-11-09T02:20:22;13.40;99.90
3344;DHT22;1685;53.104;8.228;2022-11-09T02:25:17;13.50;99.90
3344;DHT22;1685;53.104;8.228;2022-11-09T02:30:12;13.40;99.90
3344;DHT22;1685;53.104;8.228;2022-11-09T02:35:08;13.50;99.90
3344;DHT22;1685;53.104;8.228;2022-11-09T02:37:46;13.60;99.90
3344;DHT22;1685;53.104;8.228;2022-11-09T02:40:16;13.50;99.90
3344;DHT22;1685;53.104;8.228;2022-11-09T02:42:45;13.80;99.90
3344;DHT22;1685;53.104;8.228;2022-11-09T02:45:12;13.60;99.90
3344;DHT22;1685;53.104;8.228;2022-11-09T02:47:38;13.70;99.90
3344;DHT22;1685;53.104;8.228;2022-11-09T02:50:05;13.60;99.90
3344;DHT22;1685;53.104;8.228;2022-11-09T02:55:00;13.70;99.90
3344;DHT22;1685;53.104;8.228;2022-11-09T02:59:54;13.80;99.90
3344;DHT22;1685;53.104;8.228;2022-11-09T03:02:21;13.80;99.90
3344;DHT22;1685;53.104;8.228;2022-11-09T03:09:41;13.70;99.90
3344;DHT22;1685;53.104;8.228;2022-11-09T03:12:09;13.70;99.90
3344;DHT22;1685;53.104;8.228;2022-11-09T03:14:55;13.60;99.90
3344;DHT22;1685;53.104;8.228;2022-11-09T03:17:22;13.50;99.90
3344;DHT22;1685;53.104;8.228;2022-11-09T03:22:16;13.40;99.90
3344;DHT22;1685;53.104;8.228;2022-11-09T03:24:42;13.60;99.90
3344;DHT22;1685;53.104;8.228;2022-11-09T03:27:11;13.40;99.90
3344;DHT22;1685;53.104;8.228;2022-11-09T03:32:05;13.50;99.90
3344;DHT22;1685;53.104;8.228;2022-11-09T03:44:22;13.60;99.90
3344;DHT22;1685;53.104;8.228;2022-11-09T03:46:48;13.50;99.90
3344;DHT22;1685;53.104;8.228;2022-11-09T03:54:09;13.60;99.90
3344;DHT22;1685;53.104;8.228;2022-11-09T03:56:36;13.50;99.90
3344;DHT22;1685;53.104;8.228;2022-11-09T03:59:03;13.50;99.90
3344;DHT22;1685;53.104;8.228;2022-11-09T04:01:31;13.60;99.90
3344;DHT22;1685;53.104;8.228;2022-11-09T04:03:58;13.50;99.90
3344;DHT22;1685;53.104;8.228;2022-11-09T04:06:24;13.50;99.90
3344;DHT22;1685;53.104;8.228;2022-11-09T04:08:51;13.50;99.90
3344;DHT22;1685;53.104;8.228;2022-11-09T04:11:18;13.50;99.90
3344;DHT22;1685;53.104;8.228;2022-11-09T04:13:44;13.50;99.90
3344;DHT22;1685;53.104;8.228;2022-11-09T04:18:40;13.50;99.90
3344;DHT22;1685;53.104;8.228;2022-11-09T04:21:06;13.40;99.90
3344;DHT22;1685;53.104;8.228;2022-11-09T04:23:33;13.40;99.90
3344;DHT22;1685;53.104;8.228;2022-11-09T04:28:27;13.30;99.90
3344;DHT22;1685;53.104;8.228;2022-11-09T04:33:20;13.30;99.90
3344;DHT22;1685;53.104;8.228;2022-11-09T04:35:49;13.30;99.90
3344;DHT22;1685;53.104;8.228;2022-11-09T04:38:15;13.30;99.90
3344;DHT22;1685;53.104;8.228;2022-11-09T04:40:42;13.20;99.90
3344;DHT22;1685;53.104;8.228;2022-11-09T04:43:11;13.10;99.90
3344;DHT22;1685;53.104;8.228;2022-11-09T04:45:38;13.10;99.90
3344;DHT22;1685;53.104;8.228;2022-11-09T04:48:06;13.10;99.90
3344;DHT22;1685;53.104;8.228;2022-11-09T04:50:33;13.20;99.90
3344;DHT22;1685;53.104;8.228;2022-11-09T04:53:09;13.20;99.90
3344;DHT22;1685;53.104;8.228;2022-11-09T04:55:36;13.20;99.90
3344;DHT22;1685;53.104;8.228;2022-11-09T04:58:03;13.50;99.90
3344;DHT22;1685;53.104;8.228;2022-11-09T05:00:31;13.50;99.90
3344;DHT22;1685;53.104;8.228;2022-11-09T05:03:01;13.40;99.90
3344;DHT22;1685;53.104;8.228;2022-11-09T05:07:56;13.50;99.90
3344;DHT22;1685;53.104;8.228;2022-11-09T05:10:24;13.30;99.90
3344;DHT22;1685;53.104;8.228;2022-11-09T05:12:56;13.30;99.90
3344;DHT22;1685;53.104;8.228;2022-11-09T05:15:23;13.20;99.90
3344;DHT22;1685;53.104;8.228;2022-11-09T05:17:49;13.10;99.90
3344;DHT22;1685;53.104;8.228;2022-11-09T05:20:16;13.20;99.90
3344;DHT22;1685;53.104;8.228;2022-11-09T05:22:43;13.10;99.90
3344;DHT22;1685;53.104;8.228;2022-11-09T05:25:31;13.30;99.90
3344;DHT22;1685;53.104;8.228;2022-11-09T05:27:58;13.10;99.90
3344;DHT22;1685;53.104;8.228;2022-11-09T05:32:52;13.20;99.90
3344;DHT22;1685;53.104;8.228;2022-11-09T05:37:46;13.00;99.90
3344;DHT22;1685;53.104;8.228;2022-11-09T05:40:14;13.10;99.90
3344;DHT22;1685;53.104;8.228;2022-11-09T05:42:43;13.10;99.90
3344;DHT22;1685;53.104;8.228;2022-11-09T05:45:11;13.10;99.90
3344;DHT22;1685;53.104;8.228;2022-11-09T05:47:39;13.00;99.90
3344;DHT22;1685;53.104;8.228;2022-11-09T05:50:08;13.10;99.90
3344;DHT22;1685;53.104;8.228;2022-11-09T05:52:35;13.20;99.90
3344;DHT22;1685;53.104;8.228;2022-11-09T05:55:02;13.20;99.90
3344;DHT22;1685;53.104;8.228;2022-11-09T05:57:29;13.00;99.90
3344;DHT22;1685;53.104;8.228;2022-11-09T05:59:57;13.20;99.90
3344;DHT22;1685;53.104;8.228;2022-11-09T06:02:24;12.80;99.90
3344;DHT22;1685;53.104;8.228;2022-11-09T06:07:18;13.30;99.90
3344;DHT22;1685;53.104;8.228;2022-11-09T06:12:11;13.10;99.90
3344;DHT22;1685;53.104;8.228;2022-11-09T06:14:38;13.20;99.90
3344;DHT22;1685;53.104;8.228;2022-11-09T06:17:06;13.20;99.90
3344;DHT22;1685;53.104;8.228;2022-11-09T06:22:00;13.00;99.90
3344;DHT22;1685;53.104;8.228;2022-11-09T06:34:17;13.20;99.90
3344;DHT22;1685;53.104;8.228;2022-11-09T06:39:11;13.40;99.90
3344;DHT22;1685;53.104;8.228;2022-11-09T06:46:32;13.20;99.90
3344;DHT22;1685;53.104;8.228;2022-11-09T06:48:59;13.20;99.90
3344;DHT22;1685;53.104;8.228;2022-11-09T06:51:28;13.20;99.90
3344;DHT22;1685;53.104;8.228;2022-11-09T06:53:55;13.20;99.90
3344;DHT22;1685;53.104;8.228;2022-11-09T06:56:21;13.20;99.90
3344;DHT22;1685;53.104;8.228;2022-11-09T06:58:48;13.10;99.90
3344;DHT22;1685;53.104;8.228;2022-11-09T07:01:17;13.20;99.90
3344;DHT22;1685;53.104;8.228;2022-11-09T07:08:40;13.20;99.90
3344;DHT22;1685;53.104;8.228;2022-11-09T07:11:09;13.10;99.90
3344;DHT22;1685;53.104;8.228;2022-11-09T07:13:36;13.20;99.90
3344;DHT22;1685;53.104;8.228;2022-11-09T07:16:03;13.00;99.90
3344;DHT22;1685;53.104;8.228;2022-11-09T07:18:30;13.10;99.90
3344;DHT22;1685;53.104;8.228;2022-11-09T07:20:57;12.90;99.90
3344;DHT22;1685;53.104;8.228;2022-11-09T07:25:53;13.00;99.90
3344;DHT22;1685;53.104;8.228;2022-11-09T07:28:19;12.90;99.90
3344;DHT22;1685;53.104;8.228;2022-11-09T07:30:46;12.50;99.90
3344;DHT22;1685;53.104;8.228;2022-11-09T07:33:16;12.80;99.90
3344;DHT22;1685;53.104;8.228;2022-11-09T07:43:08;13.00;99.90
3344;DHT22;1685;53.104;8.228;2022-11-09T07:45:35;12.80;99.90
3344;DHT22;1685;53.104;8.228;2022-11-09T07:48:04;13.00;99.90
3344;DHT22;1685;53.104;8.228;2022-11-09T07:55:27;13.10;99.90
3344;DHT22;1685;53.104;8.228;2022-11-09T07:57:55;13.10;99.90
3344;DHT22;1685;53.104;8.228;2022-11-09T08:00:23;13.20;99.90
3344;DHT22;1685;53.104;8.228;2022-11-09T08:02:50;13.20;99.90
3344;DHT22;1685;53.104;8.228;2022-11-09T08:05:17;13.10;99.90
3344;DHT22;1685;53.104;8.228;2022-11-09T08:15:06;13.30;99.90
3344;DHT22;1685;53.104;8.228;2022-11-09T08:17:34;13.50;99.90
3344;DHT22;1685;53.104;8.228;2022-11-09T08:34:47;13.70;99.90
3344;DHT22;1685;53.104;8.228;2022-11-09T08:37:14;13.50;99.90
3344;DHT22;1685;53.104;8.228;2022-11-09T08:51:58;13.80;99.90
3344;DHT22;1685;53.104;8.228;2022-11-09T08:56:54;13.90;99.90
3344;DHT22;1685;53.104;8.228;2022-11-09T09:09:11;14.00;99.90
3344;DHT22;1685;53.104;8.228;2022-11-09T09:11:38;14.00;99.90
3344;DHT22;1685;53.104;8.228;2022-11-09T09:23:53;14.40;99.90
3344;DHT22;1685;53.104;8.228;2022-11-09T09:26:22;14.10;99.90
3344;DHT22;1685;53.104;8.228;2022-11-09T09:28:50;14.10;99.90
3344;DHT22;1685;53.104;8.228;2022-11-09T09:36:15;14.30;99.90
3344;DHT22;1685;53.104;8.228;2022-11-09T09:41:17;14.10;99.90
3344;DHT22;1685;53.104;8.228;2022-11-09T09:43:50;14.10;99.90
3344;DHT22;1685;53.104;8.228;2022-11-09T09:46:21;14.20;99.90
3344;DHT22;1685;53.104;8.228;2022-11-09T09:48:51;14.30;99.90
3344;DHT22;1685;53.104;8.228;2022-11-09T09:51:24;14.30;99.90
3344;DHT22;1685;53.104;8.228;2022-11-09T09:53:55;14.30;99.90
3344;DHT22;1685;53.104;8.228;2022-11-09T09:56:29;14.20;99.90
3344;DHT22;1685;53.104;8.228;2022-11-09T09:59:01;14.20;99.90
3344;DHT22;1685;53.104;8.228;2022-11-09T10:01:36;14.50;99.90
3344;DHT22;1685;53.104;8.228;2022-11-09T10:04:10;14.40;99.90
3344;DHT22;1685;53.104;8.228;2022-11-09T10:06:47;14.30;99.90
3344;DHT22;1685;53.104;8.228;2022-11-09T10:09:34;14.30;99.90
3344;DHT22;1685;53.104;8.228;2022-11-09T10:12:09;14.30;99.90
3344;DHT22;1685;53.104;8.228;2022-11-09T10:15:02;14.40;99.90
3344;DHT22;1685;53.104;8.228;2022-11-09T10:17:39;14.50;99.90
3344;DHT22;1685;53.104;8.228;2022-11-09T10:20:24;14.20;99.90
3344;DHT22;1685;53.104;8.228;2022-11-09T10:23:03;14.30;99.90
3344;DHT22;1685;53.104;8.228;2022-11-09T10:25:36;14.20;99.90
3344;DHT22;1685;53.104;8.228;2022-11-09T10:28:08;14.10;99.90
3344;DHT22;1685;53.104;8.228;2022-11-09T10:30:37;14.00;99.90
3344;DHT22;1685;53.104;8.228;2022-11-09T10:33:13;14.00;99.90
3344;DHT22;1685;53.104;8.228;2022-11-09T10:35:44;14.20;99.90
3344;DHT22;1685;53.104;8.228;2022-11-09T10:38:21;14.20;99.90
3344;DHT22;1685;53.104;8.228;2022-11-09T10:40:51;14.00;99.90
3344;DHT22;1685;53.104;8.228;2022-11-09T10:45:57;14.40;99.90
3344;DHT22;1685;53.104;8.228;2022-11-09T10:48:30;14.60;99.90
3344;DHT22;1685;53.104;8.228;2022-11-09T10:53:25;14.40;99.90
3344;DHT22;1685;53.104;8.228;2022-11-09T10:55:54;14.30;99.90
3344;DHT22;1685;53.104;8.228;2022-11-09T10:58:25;14.40;99.90
3344;DHT22;1685;53.104;8.228;2022-11-09T11:00:58;14.40;99.90
3344;DHT22;1685;53.104;8.228;2022-11-09T11:05:58;15.00;99.90
3344;DHT22;1685;53.104;8.228;2022-11-09T11:08:32;14.60;99.90
3344;DHT22;1685;53.104;8.228;2022-11-09T11:11:24;14.90;99.90
3344;DHT22;1685;53.104;8.228;2022-11-09T11:14:05;14.60;99.90
3344;DHT22;1685;53.104;8.228;2022-11-09T11:16:37;14.70;99.90
3344;DHT22;1685;53.104;8.228;2022-11-09T11:19:04;14.90;99.90
3344;DHT22;1685;53.104;8.228;2022-11-09T11:24:13;14.80;99.90
3344;DHT22;1685;53.104;8.228;2022-11-09T11:26:55;14.60;99.90
3344;DHT22;1685;53.104;8.228;2022-11-09T11:29:39;15.00;99.90
3344;DHT22;1685;53.104;8.228;2022-11-09T11:32:12;15.00;99.90
3344;DHT22;1685;53.104;8.228;2022-11-09T11:37:22;15.10;99.90
3344;DHT22;1685;53.104;8.228;2022-11-09T11:40:03;14.90;99.90
3344;DHT22;1685;53.104;8.228;2022-11-09T11:42:50;15.00;99.90
3344;DHT22;1685;53.104;8.228;2022-11-09T11:45:24;15.10;99.90
3344;DHT22;1685;53.104;8.228;2022-11-09T11:48:07;14.70;99.90
3344;DHT22;1685;53.104;8.228;2022-11-09T11:50:41;14.70;99.90
3344;DHT22;1685;53.104;8.228;2022-11-09T11:53:18;14.60;99.90
3344;DHT22;1685;53.104;8.228;2022-11-09T11:56:08;14.60;99.90
3344;DHT22;1685;53.104;8.228;2022-11-09T11:58:48;14.50;99.90
3344;DHT22;1685;53.104;8.228;2022-11-09T12:01:26;14.40;99.90
3344;DHT22;1685;53.104;8.228;2022-11-09T12:04:05;14.60;99.90
3344;DHT22;1685;53.104;8.228;2022-11-09T12:06:56;14.40;99.90
3344;DHT22;1685;53.104;8.228;2022-11-09T12:09:36;14.70;99.90
3344;DHT22;1685;53.104;8.228;2022-11-09T12:12:13;14.90;99.90
3344;DHT22;1685;53.104;8.228;2022-11-09T12:14:50;15.00;99.90
3344;DHT22;1685;53.104;8.228;2022-11-09T12:17:26;15.10;99.90
3344;DHT22;1685;53.104;8.228;2022-11-09T12:20:08;15.10;99.90
3344;DHT22;1685;53.104;8.228;2022-11-09T12:22:47;15.10;99.90
3344;DHT22;1685;53.104;8.228;2022-11-09T12:25:22;15.10;99.90
3344;DHT22;1685;53.104;8.228;2022-11-09T12:28:10;15.00;99.90
3344;DHT22;1685;53.104;8.228;2022-11-09T12:30:50;15.00;99.90
3344;DHT22;1685;53.104;8.228;2022-11-09T12:33:22;15.00;99.90
3344;DHT22;1685;53.104;8.228;2022-11-09T12:35:56;15.00;99.90
3344;DHT22;1685;53.104;8.228;2022-11-09T12:38:26;15.00;99.90
3344;DHT22;1685;53.104;8.228;2022-11-09T12:40:57;14.90;99.90
3344;DHT22;1685;53.104;8.228;2022-11-09T12:43:29;14.90;99.90
3344;DHT22;1685;53.104;8.228;2022-11-09T12:45:58;15.00;99.90
3344;DHT22;1685;53.104;8.228;2022-11-09T12:48:28;15.00;99.90
3344;DHT22;1685;53.104;8.228;2022-11-09T12:50:58;15.50;99.90
3344;DHT22;1685;53.104;8.228;2022-11-09T12:53:27;15.00;99.90
3344;DHT22;1685;53.104;8.228;2022-11-09T12:55:59;14.80;99.90
3344;DHT22;1685;53.104;8.228;2022-11-09T12:58:29;14.90;99.90
3344;DHT22;1685;53.104;8.228;2022-11-09T13:00:56;14.90;99.90
3344;DHT22;1685;53.104;8.228;2022-11-09T13:03:26;14.90;99.90
3344;DHT22;1685;53.104;8.228;2022-11-09T13:06:15;14.90;99.90
3344;DHT22;1685;53.104;8.228;2022-11-09T13:08:55;14.80;99.90
3344;DHT22;1685;53.104;8.228;2022-11-09T13:11:32;14.60;99.90
3344;DHT22;1685;53.104;8.228;2022-11-09T13:14:25;14.60;99.90
3344;DHT22;1685;53.104;8.228;2022-11-09T13:16:56;14.70;99.90
3344;DHT22;1685;53.104;8.228;2022-11-09T13:19:53;14.60;99.90
3344;DHT22;1685;53.104;8.228;2022-11-09T13:22:58;14.80;99.90
3344;DHT22;1685;53.104;8.228;2022-11-09T13:25:44;14.70;99.90
3344;DHT22;1685;53.104;8.228;2022-11-09T13:28:41;14.80;99.90
3344;DHT22;1685;53.104;8.228;2022-11-09T13:31:09;15.00;99.90
3344;DHT22;1685;53.104;8.228;2022-11-09T13:36:21;14.80;99.90
3344;DHT22;1685;53.104;8.228;2022-11-09T13:39:27;14.70;99.90
3344;DHT22;1685;53.104;8.228;2022-11-09T13:41:55;14.80;99.90
3344;DHT22;1685;53.104;8.228;2022-11-09T13:44:24;14.70;99.90
3344;DHT22;1685;53.104;8.228;2022-11-09T13:49:43;15.10;99.90
3344;DHT22;1685;53.104;8.228;2022-11-09T13:52:38;14.60;99.90
3344;DHT22;1685;53.104;8.228;2022-11-09T13:55:16;14.50;99.90
3344;DHT22;1685;53.104;8.228;2022-11-09T13:57:44;14.50;99.90
3344;DHT22;1685;53.104;8.228;2022-11-09T14:00:15;14.50;99.90
3344;DHT22;1685;53.104;8.228;2022-11-09T14:02:51;14.50;99.90
3344;DHT22;1685;53.104;8.228;2022-11-09T14:05:23;14.40;99.90
3344;DHT22;1685;53.104;8.228;2022-11-09T14:13:31;14.50;99.90
3344;DHT22;1685;53.104;8.228;2022-11-09T14:16:05;14.40;99.90
3344;DHT22;1685;53.104;8.228;2022-11-09T14:18:42;14.50;99.90
3344;DHT22;1685;53.104;8.228;2022-11-09T14:21:22;14.40;99.90
3344;DHT22;1685;53.104;8.228;2022-11-09T14:26:22;14.40;99.90
3344;DHT22;1685;53.104;8.228;2022-11-09T14:31:24;14.40;99.90
3344;DHT22;1685;53.104;8.228;2022-11-09T14:33:58;14.40;99.90
3344;DHT22;1685;53.104;8.228;2022-11-09T14:36:26;14.40;99.90
3344;DHT22;1685;53.104;8.228;2022-11-09T14:38:54;14.30;99.90
3344;DHT22;1685;53.104;8.228;2022-11-09T14:41:24;14.40;99.90
3344;DHT22;1685;53.104;8.228;2022-11-09T14:43:53;14.30;99.90
3344;DHT22;1685;53.104;8.228;2022-11-09T14:46:22;14.30;99.90
3344;DHT22;1685;53.104;8.228;2022-11-09T14:48:51;14.30;99.90
3344;DHT22;1685;53.104;8.228;2022-11-09T14:51:18;14.30;99.90
3344;DHT22;1685;53.104;8.228;2022-11-09T14:53:45;14.30;99.90
3344;DHT22;1685;53.104;8.228;2022-11-09T14:56:15;14.30;99.90
3344;DHT22;1685;53.104;8.228;2022-11-09T14:58:44;14.30;99.90
3344;DHT22;1685;53.104;8.228;2022-11-09T15:01:20;14.20;99.90
3344;DHT22;1685;53.104;8.228;2022-11-09T15:04:07;14.20;99.90
3344;DHT22;1685;53.104;8.228;2022-11-09T15:09:05;14.20;99.90
3344;DHT22;1685;53.104;8.228;2022-11-09T15:11:34;14.20;99.90
3344;DHT22;1685;53.104;8.228;2022-11-09T15:14:12;14.10;99.90
3344;DHT22;1685;53.104;8.228;2022-11-09T15:16:40;14.10;99.90
3344;DHT22;1685;53.104;8.228;2022-11-09T15:19:20;14.10;99.90
3344;DHT22;1685;53.104;8.228;2022-11-09T15:24:16;14.10;99.90
3344;DHT22;1685;53.104;8.228;2022-11-09T15:26:45;14.00;99.90
3344;DHT22;1685;53.104;8.228;2022-11-09T15:29:35;14.00;99.90
3344;DHT22;1685;53.104;8.228;2022-11-09T15:32:12;13.90;99.90
3344;DHT22;1685;53.104;8.228;2022-11-09T15:34:41;13.80;99.90
3344;DHT22;1685;53.104;8.228;2022-11-09T15:37:24;13.80;99.90
3344;DHT22;1685;53.104;8.228;2022-11-09T15:44:51;13.60;99.90
3344;DHT22;1685;53.104;8.228;2022-11-09T15:47:22;13.60;99.90
3344;DHT22;1685;53.104;8.228;2022-11-09T15:57:14;13.40;99.90
3344;DHT22;1685;53.104;8.228;2022-11-09T16:02:12;13.40;99.90
3344;DHT22;1685;53.104;8.228;2022-11-09T16:07:09;13.30;99.90
3344;DHT22;1685;53.104;8.228;2022-11-09T16:09:38;13.40;99.90
3344;DHT22;1685;53.104;8.228;2022-11-09T16:19:27;13.10;99.90
3344;DHT22;1685;53.104;8.228;2022-11-09T16:36:39;13.00;99.90
3344;DHT22;1685;53.104;8.228;2022-11-09T16:39:07;13.00;99.90
3344;DHT22;1685;53.104;8.228;2022-11-09T16:41:39;13.00;99.90
3344;DHT22;1685;53.104;8.228;2022-11-09T16:53:56;13.10;99.90
3344;DHT22;1685;53.104;8.228;2022-11-09T17:11:10;13.00;99.90
3344;DHT22;1685;53.104;8.228;2022-11-09T17:16:09;12.90;99.90
3344;DHT22;1685;53.104;8.228;2022-11-09T17:18:37;12.80;99.90
3344;DHT22;1685;53.104;8.228;2022-11-09T17:21:08;12.90;99.90
3344;DHT22;1685;53.104;8.228;2022-11-09T17:26:04;12.60;99.90
3344;DHT22;1685;53.104;8.228;2022-11-09T17:28:33;12.50;99.90
3344;DHT22;1685;53.104;8.228;2022-11-09T17:31:06;12.50;99.90
3344;DHT22;1685;53.104;8.228;2022-11-09T17:36:01;12.30;99.90
3344;DHT22;1685;53.104;8.228;2022-11-09T17:38:29;12.20;99.90
3344;DHT22;1685;53.104;8.228;2022-11-09T17:41:00;12.00;99.90
3344;DHT22;1685;53.104;8.228;2022-11-09T17:43:28;12.00;99.90
3344;DHT22;1685;53.104;8.228;2022-11-09T17:46:01;12.00;99.90
3344;DHT22;1685;53.104;8.228;2022-11-09T18:03:12;11.70;99.90
3344;DHT22;1685;53.104;8.228;2022-11-09T18:05:41;11.60;99.90
3344;DHT22;1685;53.104;8.228;2022-11-09T18:08:09;11.60;99.90
3344;DHT22;1685;53.104;8.228;2022-11-09T18:10:37;11.60;99.90
3344;DHT22;1685;53.104;8.228;2022-11-09T18:20:27;11.50;99.90
3344;DHT22;1685;53.104;8.228;2022-11-09T18:37:39;11.30;99.90
3344;DHT22;1685;53.104;8.228;2022-11-09T18:40:06;11.30;99.90
3344;DHT22;1685;53.104;8.228;2022-11-09T18:54:50;11.20;99.90
3344;DHT22;1685;53.104;8.228;2022-11-09T19:02:12;11.10;99.90
3344;DHT22;1685;53.104;8.228;2022-11-09T19:12:06;11.20;99.90
3344;DHT22;1685;53.104;8.228;2022-11-09T19:14:34;11.10;99.90
3344;DHT22;1685;53.104;8.228;2022-11-09T19:17:06;11.10;99.90
3344;DHT22;1685;53.104;8.228;2022-11-09T19:22:00;11.10;99.90
3344;DHT22;1685;53.104;8.228;2022-11-09T19:24:27;11.10;99.90
3344;DHT22;1685;53.104;8.228;2022-11-09T19:29:23;11.10;99.90
3344;DHT22;1685;53.104;8.228;2022-11-09T19:31:50;11.10;99.90
3344;DHT22;1685;53.104;8.228;2022-11-09T19:34:18;11.10;99.90
3344;DHT22;1685;53.104;8.228;2022-11-09T19:36:45;11.20;99.90
3344;DHT22;1685;53.104;8.228;2022-11-09T19:39:13;11.00;99.90
3344;DHT22;1685;53.104;8.228;2022-11-09T19:41:40;11.00;99.90
3344;DHT22;1685;53.104;8.228;2022-11-09T19:44:08;10.90;99.90
3344;DHT22;1685;53.104;8.228;2022-11-09T19:46:38;11.00;99.90
3344;DHT22;1685;53.104;8.228;2022-11-09T19:49:05;10.90;99.90
3344;DHT22;1685;53.104;8.228;2022-11-09T19:51:33;10.70;99.90
3344;DHT22;1685;53.104;8.228;2022-11-09T19:54:02;11.40;99.90
3344;DHT22;1685;53.104;8.228;2022-11-09T19:56:30;10.90;99.90
3344;DHT22;1685;53.104;8.228;2022-11-09T19:58:58;10.90;99.90
3344;DHT22;1685;53.104;8.228;2022-11-09T20:01:26;11.10;99.90
3344;DHT22;1685;53.104;8.228;2022-11-09T20:03:57;10.80;99.90
3344;DHT22;1685;53.104;8.228;2022-11-09T20:06:25;10.90;99.90
3344;DHT22;1685;53.104;8.228;2022-11-09T20:08:52;11.00;99.90
3344;DHT22;1685;53.104;8.228;2022-11-09T20:11:20;11.00;99.90
3344;DHT22;1685;53.104;8.228;2022-11-09T20:14:07;10.90;99.90
3344;DHT22;1685;53.104;8.228;2022-11-09T20:16:35;10.90;99.90
3344;DHT22;1685;53.104;8.228;2022-11-09T20:19:05;11.00;99.90
3344;DHT22;1685;53.104;8.228;2022-11-09T20:21:33;10.90;99.90
3344;DHT22;1685;53.104;8.228;2022-11-09T20:24:00;10.80;99.90
3344;DHT22;1685;53.104;8.228;2022-11-09T20:26:27;10.90;99.90
3344;DHT22;1685;53.104;8.228;2022-11-09T20:31:22;10.90;99.90
3344;DHT22;1685;53.104;8.228;2022-11-09T20:33:49;10.90;99.90
3344;DHT22;1685;53.104;8.228;2022-11-09T20:36:18;10.90;99.90
3344;DHT22;1685;53.104;8.228;2022-11-09T20:41:13;10.80;99.90
3344;DHT22;1685;53.104;8.228;2022-11-09T20:46:13;10.80;99.90
3344;DHT22;1685;53.104;8.228;2022-11-09T20:48:40;11.00;99.90
3344;DHT22;1685;53.104;8.228;2022-11-09T20:51:08;10.90;99.90
3344;DHT22;1685;53.104;8.228;2022-11-09T20:53:36;10.90;99.90
3344;DHT22;1685;53.104;8.228;2022-11-09T20:56:03;11.00;99.90
3344;DHT22;1685;53.104;8.228;2022-11-09T21:01:04;10.80;99.90
3344;DHT22;1685;53.104;8.228;2022-11-09T21:03:33;11.00;99.90
3344;DHT22;1685;53.104;8.228;2022-11-09T21:06:01;10.90;99.90
3344;DHT22;1685;53.104;8.228;2022-11-09T21:10:58;10.90;99.90
3344;DHT22;1685;53.104;8.228;2022-11-09T21:13:25;11.00;99.90
3344;DHT22;1685;53.104;8.228;2022-11-09T21:25:59;10.90;99.90
3344;DHT22;1685;53.104;8.228;2022-11-09T21:28:49;10.80;99.90
3344;DHT22;1685;53.104;8.228;2022-11-09T21:34:00;10.80;99.90
3344;DHT22;1685;53.104;8.228;2022-11-09T21:36:27;10.80;99.90
3344;DHT22;1685;53.104;8.228;2022-11-09T21:38:53;10.80;99.90
3344;DHT22;1685;53.104;8.228;2022-11-09T21:41:21;10.70;99.90
3344;DHT22;1685;53.104;8.228;2022-11-09T21:44:04;10.70;99.90
3344;DHT22;1685;53.104;8.228;2022-11-09T21:46:32;10.80;99.90
3344;DHT22;1685;53.104;8.228;2022-11-09T21:49:00;10.80;99.90
3344;DHT22;1685;53.104;8.228;2022-11-09T21:51:26;10.70;99.90
3344;DHT22;1685;53.104;8.228;2022-11-09T21:53:53;10.70;99.90
3344;DHT22;1685;53.104;8.228;2022-11-09T21:56:21;10.80;99.90
3344;DHT22;1685;53.104;8.228;2022-11-09T21:58:48;10.60;99.90
3344;DHT22;1685;53.104;8.228;2022-11-09T22:01:15;10.70;99.90
3344;DHT22;1685;53.104;8.228;2022-11-09T22:06:10;10.60;99.90
3344;DHT22;1685;53.104;8.228;2022-11-09T22:08:38;10.50;99.90
3344;DHT22;1685;53.104;8.228;2022-11-09T22:11:06;10.50;99.90
3344;DHT22;1685;53.104;8.228;2022-11-09T22:13:35;10.50;99.90
3344;DHT22;1685;53.104;8.228;2022-11-09T22:16:20;10.50;99.90
3344;DHT22;1685;53.104;8.228;2022-11-09T22:21:32;10.50;99.90
3344;DHT22;1685;53.104;8.228;2022-11-09T22:28:55;10.50;99.90
3344;DHT22;1685;53.104;8.228;2022-11-09T22:31:22;10.40;99.90
3344;DHT22;1685;53.104;8.228;2022-11-09T22:33:49;10.10;99.90
3344;DHT22;1685;53.104;8.228;2022-11-09T22:41:12;10.40;99.90
3344;DHT22;1685;53.104;8.228;2022-11-09T22:43:40;10.30;99.90
3344;DHT22;1685;53.104;8.228;2022-11-09T22:46:10;10.00;99.90
3344;DHT22;1685;53.104;8.228;2022-11-09T22:48:38;10.30;99.90
3344;DHT22;1685;53.104;8.228;2022-11-09T22:51:06;10.30;99.90
3344;DHT22;1685;53.104;8.228;2022-11-09T22:56:01;10.20;99.90
3344;DHT22;1685;53.104;8.228;2022-11-09T22:58:29;10.00;99.90
3344;DHT22;1685;53.104;8.228;2022-11-09T23:01:03;10.20;99.90